Time;durP1;ratioP1;P1;durP2;ratioP2;P2;SDS_P1;SDS_P2;PMS_P1;PMS_P2;Temp;Humidity;BMP_temperature;BMP_pressure;BME280_temperature;BME280_humidity;BME280_pressure;Samples;Min_cycle;Max_cycle;Signal;HPM_P1;HPM_P2
2023/04/17 00:02:10;;;;;;;33.37;20.93;;;8.60;99.90;;;11.90;63.31;98038.66;5060512;28;20454;-46
2023/04/17 00:04:39;;;;;;;32.40;21.30;;;8.60;99.90;;;11.95;63.34;98036.34;5054190;28;20049;-47
2023/04/17 00:07:08;;;;;;;30.93;18.60;;;8.70;99.90;;;11.92;63.24;98029.53;5061344;28;20049;-45
2023/04/17 00:09:36;;;;;;;31.33;20.13;;;8.70;99.90;;;11.89;63.32;98032.50;5065467;28;20505;-44
2023/04/17 00:12:04;;;;;;;31.83;18.47;;;8.60;99.90;;;11.88;63.22;98029.94;5063876;28;20044;-44
2023/04/17 00:14:31;;;;;;;29.83;18.23;;;8.60;99.90;;;11.73;63.13;98033.22;5062525;28;20494;-44
2023/04/17 00:16:59;;;;;;;29.43;18.33;;;8.50;99.90;;;11.77;63.48;98023.91;5062460;28;20058;-44
2023/04/17 00:19:26;;;;;;;26.67;18.10;;;8.50;99.90;;;11.80;63.06;98028.91;5063614;28;20064;-47
2023/04/17 00:21:54;;;;;;;31.10;17.93;;;8.50;99.90;;;11.85;63.00;98025.78;5065504;28;20044;-45
2023/04/17 00:24:21;;;;;;;27.70;18.47;;;8.60;99.90;;;11.81;62.92;98024.44;5063825;28;20051;-45
2023/04/17 00:26:49;;;;;;;28.10;17.87;;;8.60;99.90;;;11.85;62.94;98025.78;5062054;28;20053;-47
2023/04/17 00:29:16;;;;;;;27.83;18.10;;;8.60;99.90;;;11.91;62.89;98030.50;5041596;28;20159;-45
2023/04/17 00:31:44;;;;;;;26.20;16.47;;;8.60;99.90;;;11.95;62.77;98028.34;5063791;28;20528;-45
2023/04/17 00:34:11;;;;;;;25.93;16.60;;;8.70;99.90;;;11.94;62.71;98022.19;5060181;28;20059;-45
2023/04/17 00:36:40;;;;;;;25.63;16.37;;;8.70;99.90;;;11.92;62.62;98026.84;5051528;28;20049;-44
2023/04/17 00:39:07;;;;;;;23.90;16.13;;;8.60;99.90;;;11.86;62.38;98021.28;5064978;28;20422;-46
2023/04/17 00:41:35;;;;;;;28.93;16.97;;;8.60;99.90;;;11.85;62.38;98027.63;5062819;28;20513;-46
2023/04/17 00:44:03;;;;;;;24.73;16.13;;;8.60;99.90;;;11.83;62.86;98015.25;5063507;28;20056;-47
2023/04/17 00:46:31;;;;;;;28.23;17.90;;;8.60;99.90;;;11.80;62.38;98012.06;5062432;28;20040;-44
2023/04/17 00:49:00;;;;;;;26.47;16.97;;;8.50;99.90;;;11.79;62.34;98015.75;5059621;28;20502;-45
2023/04/17 00:51:27;;;;;;;25.50;16.63;;;8.50;99.90;;;11.76;62.44;98011.56;5067880;28;20049;-47
2023/04/17 00:53:55;;;;;;;22.83;15.13;;;8.50;99.90;;;11.76;62.63;98011.56;5060352;28;20052;-46
2023/04/17 00:56:23;;;;;;;29.10;16.37;;;8.50;99.90;;;11.76;62.38;98010.72;5060776;28;20045;-47
2023/04/17 00:58:51;;;;;;;27.47;17.33;;;8.40;99.90;;;11.72;62.55;98009.38;5063288;28;20161;-45
2023/04/17 01:01:18;;;;;;;28.30;16.27;;;8.40;99.90;;;11.74;62.64;98010.06;5053851;28;20052;-46
2023/04/17 01:03:49;;;;;;;32.27;18.63;;;8.40;99.90;;;11.68;62.58;98005.34;5059652;28;20152;-44
2023/04/17 01:06:17;;;;;;;27.13;17.40;;;8.40;99.90;;;11.67;62.78;98009.00;5060197;28;20037;-46
2023/04/17 01:08:45;;;;;;;25.87;16.43;;;8.40;99.90;;;11.68;62.63;98003.53;5046715;28;20048;-50
2023/04/17 01:11:13;;;;;;;28.57;17.10;;;8.40;99.90;;;11.57;62.86;98001.97;5062828;28;20048;-45
2023/04/17 01:13:45;;;;;;;28.80;17.60;;;8.30;99.90;;;11.58;63.03;97998.31;5059554;28;20048;-46
2023/04/17 01:16:13;;;;;;;27.17;17.00;;;8.30;99.90;;;11.60;63.10;98000.81;5059393;28;20502;-47
2023/04/17 01:18:41;;;;;;;26.83;17.13;;;8.30;99.90;;;11.65;62.62;97997.66;5062664;28;20044;-47
2023/04/17 01:21:08;;;;;;;29.83;17.00;;;8.40;99.90;;;11.68;62.70;98006.19;5064442;28;20040;-46
2023/04/17 01:23:50;;;;;;;29.50;15.97;;;8.40;99.90;;;11.72;62.55;98010.19;5059842;28;20053;-46
2023/04/17 01:26:22;;;;;;;26.70;17.70;;;8.50;99.90;;;11.71;62.75;98005.03;5059258;28;20045;-49
2023/04/17 01:28:56;;;;;;;28.75;17.60;;;8.40;99.90;;;11.66;62.56;98008.19;5063074;28;20051;-46
2023/04/17 01:31:28;;;;;;;27.70;17.73;;;8.40;99.90;;;11.65;62.66;98003.00;5062407;28;20040;-48
2023/04/17 01:33:56;;;;;;;30.10;19.10;;;8.40;99.90;;;11.71;62.90;98008.56;5039715;28;20041;-45
2023/04/17 01:36:24;;;;;;;31.70;19.33;;;8.40;99.90;;;11.76;62.38;98006.22;5057729;28;20051;-48
2023/04/17 01:38:51;;;;;;;31.23;17.83;;;8.50;99.90;;;11.73;62.59;98006.56;5062771;28;20040;-46
2023/04/17 01:41:19;;;;;;;35.30;19.63;;;8.50;99.90;;;11.73;62.61;98008.38;5061337;28;20049;-44
2023/04/17 01:43:47;;;;;;;34.60;20.03;;;8.40;99.90;;;11.75;62.67;98003.72;5058481;28;20103;-45
2023/04/17 01:46:14;;;;;;;26.10;16.77;;;8.40;99.90;;;11.75;62.45;98003.72;5059088;28;20063;-51
2023/04/17 01:48:42;;;;;;;28.37;17.63;;;8.40;99.90;;;11.73;62.78;98011.88;5058654;28;20052;-44
2023/04/17 01:51:09;;;;;;;27.33;17.30;;;8.40;99.90;;;11.67;62.86;98014.34;5046149;28;20068;-44
2023/04/17 01:53:39;;;;;;;29.77;16.83;;;8.40;99.90;;;11.70;62.53;98003.38;5062317;28;20044;-46
2023/04/17 01:56:06;;;;;;;32.50;18.87;;;8.40;99.90;;;11.74;62.53;98002.03;5045362;28;20056;-48
2023/04/17 01:58:34;;;;;;;27.90;18.20;;;8.50;99.90;;;11.73;62.48;98003.88;5059377;28;20061;-47
2023/04/17 02:01:02;;;;;;;33.23;19.67;;;8.40;99.90;;;11.72;62.57;97998.72;5058777;28;20387;-48
2023/04/17 02:03:30;;;;;;;30.10;19.33;;;8.40;99.90;;;11.65;62.49;97997.66;5061739;28;20037;-45
2023/04/17 02:05:58;;;;;;;33.60;20.63;;;8.40;99.90;;;11.67;63.04;98003.66;5061814;28;20059;-46
2023/04/17 02:08:26;;;;;;;37.30;22.10;;;8.40;99.90;;;11.73;62.94;98003.03;5062529;28;20041;-46
2023/04/17 02:10:53;;;;;;;41.47;23.17;;;8.50;99.90;;;11.75;62.45;97998.41;5059806;28;20037;-48
2023/04/17 02:13:21;;;;;;;38.90;22.23;;;8.50;99.90;;;11.75;62.83;98001.91;5060061;28;20045;-50
2023/04/17 02:15:48;;;;;;;35.67;19.13;;;8.50;99.90;;;11.71;62.59;98005.88;5063216;28;20048;-46
2023/04/17 02:18:16;;;;;;;37.13;20.53;;;8.40;99.90;;;11.64;62.96;97999.50;5061682;28;20045;-49
2023/04/17 02:20:44;;;;;;;31.37;18.00;;;8.30;99.90;;;11.68;62.82;98000.03;5062166;28;20048;-50
2023/04/17 02:23:12;;;;;;;32.83;19.67;;;8.40;99.90;;;11.74;62.40;97992.22;5061808;28;20047;-47
2023/04/17 02:25:40;;;;;;;35.37;19.50;;;8.50;99.90;;;11.74;62.95;98002.88;5059910;28;20045;-48
2023/04/17 02:28:07;;;;;;;29.40;18.27;;;8.50;99.90;;;11.74;62.23;97996.72;5058452;28;20048;-50
2023/04/17 02:30:35;;;;;;;25.97;17.83;;;8.50;99.90;;;11.77;62.10;97997.22;5059959;28;20049;-49
2023/04/17 02:33:02;;;;;;;28.97;18.50;;;8.50;99.90;;;11.79;62.56;98000.56;5063126;28;20413;-46
2023/04/17 02:35:31;;;;;;;32.57;19.17;;;8.50;99.90;;;11.81;62.28;98001.25;5059666;28;20044;-45
2023/04/17 02:37:59;;;;;;;28.63;18.20;;;8.50;99.90;;;11.79;62.38;97999.75;5057542;28;20166;-46
2023/04/17 02:40:27;;;;;;;28.03;17.83;;;8.50;99.90;;;11.80;61.93;98004.91;5058291;28;20037;-46
2023/04/17 02:43:01;;;;;;;;;;;8.50;99.90;;;11.80;62.08;98001.41;5046448;28;20048;-44
2023/04/17 02:45:29;;;;;;;25.93;17.33;;;8.40;99.90;;;11.85;61.89;98000.94;5059440;28;19920;-46
2023/04/17 02:47:57;;;;;;;28.73;17.57;;;8.40;99.90;;;11.74;61.81;98000.22;5057782;28;20056;-45
2023/04/17 02:50:25;;;;;;;27.13;16.90;;;8.40;99.90;;;11.73;61.87;98005.69;5058036;28;20056;-46
2023/04/17 02:53:13;;;;;;;24.70;15.47;;;8.40;99.90;;;11.71;62.40;98003.22;5061149;28;20044;-44
2023/04/17 02:55:40;;;;;;;26.10;16.23;;;8.40;99.90;;;11.71;61.90;98002.34;5058203;28;20047;-45
2023/04/17 02:58:08;;;;;;;26.70;17.40;;;8.40;99.90;;;11.69;62.35;98001.69;5058031;28;20041;-45
2023/04/17 03:00:37;;;;;;;25.07;16.00;;;8.40;99.90;;;11.73;62.00;98001.22;5061705;28;20387;-47
2023/04/17 03:03:06;;;;;;;27.73;15.70;;;8.50;99.90;;;11.77;62.18;98001.75;5061327;28;20044;-48
2023/04/17 03:05:35;;;;;;;27.23;17.20;;;8.50;99.90;;;11.77;61.95;98001.75;5060461;28;20048;-46
2023/04/17 03:08:03;;;;;;;28.10;16.93;;;8.50;99.90;;;11.80;62.13;98004.91;5057971;28;20040;-48
2023/04/17 03:10:36;;;;;;;26.33;16.83;;;8.60;99.90;;;11.82;61.71;97999.41;5059150;28;20048;-47
2023/04/17 03:13:03;;;;;;;26.10;18.10;;;8.50;99.90;;;11.79;61.85;97997.06;5060779;28;20040;-45
2023/04/17 03:15:33;;;;;;;26.73;16.83;;;8.50;99.90;;;11.74;62.12;97996.72;5059105;28;20045;-47
2023/04/17 03:18:01;;;;;;;28.97;17.23;;;8.50;99.90;;;11.78;61.86;98001.56;5057867;28;20418;-47
2023/04/17 03:20:29;;;;;;;30.37;18.00;;;8.50;99.90;;;11.76;61.82;98002.72;5058115;28;20045;-46
2023/04/17 03:22:56;;;;;;;30.50;17.33;;;8.40;99.90;;;11.74;62.24;98002.88;5060363;28;20057;-48
2023/04/17 03:25:24;;;;;;;29.53;17.87;;;8.40;99.90;;;11.77;61.79;98005.22;5064318;28;20055;-47
2023/04/17 03:27:52;;;;;;;26.67;16.87;;;8.50;99.90;;;11.79;61.65;98007.75;5064220;28;20405;-45
2023/04/17 03:30:24;;;;;;;32.20;19.20;;;8.50;99.90;;;11.77;61.75;98002.56;5064100;28;20053;-47
2023/04/17 03:32:54;;;;;;;27.70;16.23;;;8.50;99.90;;;11.78;61.86;98000.72;5050895;28;20037;-45
2023/04/17 03:35:22;;;;;;;26.47;17.40;;;8.50;99.90;;;11.79;61.91;97997.06;5066746;28;20044;-47
2023/04/17 03:37:49;;;;;;;26.77;16.90;;;8.50;99.90;;;11.78;62.04;97995.41;5051813;28;20046;-47
2023/04/17 03:40:17;;;;;;;28.90;16.67;;;8.50;99.90;;;11.77;62.03;97999.91;5059512;28;20045;-46
2023/04/17 03:42:46;;;;;;;30.90;17.40;;;8.50;99.90;;;11.75;61.86;98004.56;5066967;28;20048;-45
2023/04/17 03:45:15;;;;;;;29.60;17.57;;;8.40;99.90;;;11.71;61.74;98005.03;5067012;28;20118;-45
2023/04/17 03:47:43;;;;;;;27.23;18.17;;;8.40;99.90;;;11.74;61.86;98000.22;5064521;28;20056;-48
2023/04/17 03:50:11;;;;;;;31.03;18.63;;;8.40;99.90;;;11.77;62.04;98004.41;5044142;28;20045;-47
2023/04/17 03:52:45;;;;;;;25.40;18.07;;;8.50;99.90;;;11.78;61.71;98004.22;5066359;28;20044;-46
2023/04/17 03:55:13;;;;;;;30.30;18.93;;;8.50;99.90;;;11.76;62.04;98016.06;5066635;28;20523;-45
2023/04/17 03:57:43;;;;;;;29.47;17.57;;;8.40;99.90;;;11.71;61.75;98011.22;5064668;28;20048;-47
2023/04/17 04:00:11;;;;;;;30.57;20.00;;;8.40;99.90;;;11.61;62.47;98013.13;5063914;28;20044;-51
2023/04/17 04:02:56;;;;;;;26.90;16.87;;;8.40;99.90;;;11.68;62.03;98018.69;5063689;28;20414;-48
2023/04/17 04:05:28;;;;;;;28.53;18.93;;;8.40;99.90;;;11.57;62.26;98011.78;5065327;28;20402;-45
2023/04/17 04:07:56;;;;;;;34.20;20.00;;;8.40;99.90;;;11.64;62.17;98020.84;5066640;28;20055;-46
2023/04/17 04:10:31;;;;;;;32.37;19.53;;;8.30;99.90;;;11.63;62.64;98022.69;5066222;28;20041;-45
2023/04/17 04:12:59;;;;;;;30.67;17.97;;;8.30;99.90;;;11.60;62.33;98019.50;5063687;28;20045;-46
2023/04/17 04:15:27;;;;;;;35.23;20.27;;;8.30;99.90;;;11.50;62.39;98024.94;5054834;28;20532;-46
2023/04/17 04:17:59;;;;;;;33.60;21.00;;;8.30;99.90;;;11.46;62.48;98017.38;5063883;28;20036;-45
2023/04/17 04:20:27;;;;;;;32.60;20.17;;;8.20;99.90;;;11.49;62.89;98030.41;5052492;28;20284;-45
2023/04/17 04:23:07;;;;;;;34.60;20.23;;;8.30;99.90;;;11.59;62.85;98028.47;5052379;28;20037;-46
2023/04/17 04:25:35;;;;;;;29.33;20.37;;;8.30;99.90;;;11.68;62.44;98027.53;5065250;28;20506;-44
2023/04/17 04:28:16;;;;;;;34.20;19.10;;;8.40;99.90;;;11.70;62.27;98030.03;5063719;28;20057;-46
2023/04/17 04:30:49;;;;;;;28.17;17.93;;;8.40;99.90;;;11.70;62.34;98033.53;5065739;28;20052;-46
2023/04/17 04:33:19;;;;;;;27.47;17.53;;;8.50;99.90;;;11.66;62.20;98031.34;5066517;28;20063;-47
2023/04/17 04:35:48;;;;;;;32.83;20.13;;;8.40;99.90;;;11.65;62.04;98030.53;5054221;28;20577;-45
2023/04/17 04:38:16;;;;;;;31.20;19.07;;;8.40;99.90;;;11.63;62.15;98028.00;5061222;28;20487;-45
2023/04/17 04:40:50;;;;;;;31.47;19.30;;;8.30;99.90;;;11.71;61.91;98031.69;5062023;28;20060;-46
2023/04/17 04:43:19;;;;;;;26.07;17.27;;;8.40;99.90;;;11.68;62.17;98026.69;5063534;28;20045;-61
2023/04/17 04:45:52;;;;;;;27.45;18.38;;;8.40;99.90;;;11.68;62.22;98030.19;5063515;28;20044;-61
2023/04/17 04:48:20;;;;;;;30.63;18.27;;;8.30;99.90;;;11.70;62.03;98030.03;5047125;28;20048;-61
2023/04/17 04:50:47;;;;;;;32.70;19.43;;;8.40;99.90;;;11.71;61.95;98026.34;5062184;28;20052;-61
2023/04/17 04:53:15;;;;;;;31.33;19.53;;;8.40;99.90;;;11.69;61.93;98025.69;5051295;28;20049;-61
2023/04/17 04:55:53;;;;;;;29.60;19.00;;;8.40;99.90;;;11.68;61.77;98034.69;5059739;28;20521;-61
2023/04/17 04:58:21;;;;;;;32.03;19.00;;;8.30;99.90;;;11.70;61.94;98038.88;5047491;28;20041;-61
2023/04/17 05:00:49;;;;;;;29.17;19.03;;;8.40;99.90;;;11.71;62.28;98031.69;5045454;28;20440;-61
2023/04/17 05:03:24;;;;;;;29.17;17.90;;;8.40;99.90;;;11.71;62.34;98039.69;5063671;28;20517;-61
2023/04/17 05:05:53;;;;;;;29.70;18.73;;;8.40;99.90;;;11.74;62.20;98039.38;5062762;28;20048;-61
2023/04/17 05:08:24;;;;;;;30.23;17.77;;;8.40;99.90;;;11.70;61.78;98043.38;5062948;28;20051;-61
2023/04/17 05:11:03;;;;;;;28.83;18.53;;;8.40;99.90;;;11.66;62.01;98042.84;5052571;28;20053;-61
2023/04/17 05:13:31;;;;;;;24.40;17.30;;;8.30;99.90;;;11.65;62.31;98041.19;5059301;28;20532;-61
2023/04/17 05:15:58;;;;;;;32.77;18.13;;;8.30;99.90;;;11.68;62.31;98046.19;5046458;28;20040;-61
2023/04/17 05:18:29;;;;;;;30.10;18.17;;;8.40;99.90;;;11.66;61.94;98040.19;5062820;28;20044;-62
2023/04/17 05:20:57;;;;;;;30.47;18.50;;;8.40;99.90;;;11.70;62.09;98049.53;5059555;28;20112;-62
2023/04/17 05:23:27;;;;;;;29.10;17.23;;;8.50;99.90;;;11.77;62.09;98049.75;5059442;28;20532;-62
2023/04/17 05:25:55;;;;;;;24.63;16.70;;;8.50;99.90;;;11.76;62.07;98048.06;5051230;28;20055;-62
2023/04/17 05:28:23;;;;;;;26.50;16.10;;;8.50;99.90;;;11.76;61.63;98048.06;5058981;28;20049;-62
2023/04/17 05:30:54;;;;;;;24.43;16.57;;;8.40;99.90;;;11.75;61.71;98047.25;5061097;28;20403;-62
2023/04/17 05:33:30;;;;;;;23.93;15.63;;;8.50;99.90;;;11.77;61.91;98055.09;5059105;28;20052;-63
2023/04/17 05:36:00;;;;;;;22.03;14.90;;;8.40;99.90;;;11.74;61.73;98045.56;5062309;28;20040;-62
2023/04/17 05:38:30;;;;;;;22.90;14.07;;;8.40;99.90;;;11.75;61.87;98055.25;5062403;28;20048;-62
2023/04/17 05:40:58;;;;;;;21.50;15.57;;;8.40;99.90;;;11.73;61.77;98061.72;5058356;28;20418;-62
2023/04/17 05:43:26;;;;;;;21.13;14.13;;;8.40;99.90;;;11.70;61.61;98051.38;5059011;28;20053;-63
2023/04/17 05:45:54;;;;;;;21.03;14.43;;;8.40;99.90;;;11.69;61.71;98053.22;5062334;28;20048;-61
2023/04/17 05:48:22;;;;;;;20.50;13.20;;;8.40;99.90;;;11.67;61.54;98055.19;5064217;28;20044;-61
2023/04/17 05:50:51;;;;;;;20.37;14.63;;;8.40;99.90;;;11.67;61.95;98051.69;5043530;28;20049;-62
2023/04/17 05:53:18;;;;;;;23.37;15.20;;;8.40;99.90;;;11.66;61.86;98058.84;5058778;28;20056;-61
2023/04/17 05:55:53;;;;;;;17.63;12.57;;;8.40;99.90;;;11.65;61.59;98059.84;5061569;28;20044;-61
2023/04/17 05:58:20;;;;;;;20.43;13.13;;;8.30;99.90;;;11.65;61.67;98065.19;5063633;28;20437;-61
2023/04/17 06:00:55;;;;;;;18.60;12.60;;;8.30;99.90;;;11.67;61.53;98065.88;5058861;28;20049;-61
2023/04/17 06:03:25;;;;;;;19.83;14.33;;;8.30;99.90;;;11.62;61.57;98061.00;5058571;28;20533;-61
2023/04/17 06:06:02;;;;;;;19.33;12.33;;;8.30;99.90;;;11.62;62.08;98058.31;5050642;28;20123;-61
2023/04/17 06:08:31;;;;;;;18.83;11.80;;;8.30;99.90;;;11.60;62.12;98056.81;5055253;28;20502;-60
2023/04/17 06:10:58;;;;;;;25.67;14.23;;;8.30;99.90;;;11.63;61.98;98062.69;5050283;28;20061;-60
2023/04/17 06:13:27;;;;;;;20.70;12.67;;;8.40;99.90;;;11.65;61.90;98059.00;5058669;28;20033;-61
2023/04/17 06:15:57;;;;;;;17.57;12.03;;;8.40;99.90;;;11.55;62.06;98059.09;5061262;28;20053;-60
2023/04/17 06:18:25;;;;;;;20.93;12.90;;;8.30;99.90;;;11.58;62.21;98061.47;5063556;28;20039;-61
2023/04/17 06:20:52;;;;;;;21.83;13.17;;;8.30;99.90;;;11.59;61.83;98071.13;5058854;28;20053;-60
2023/04/17 06:23:20;;;;;;;16.67;11.83;;;8.30;99.90;;;11.61;62.20;98063.81;5058591;28;20036;-61
2023/04/17 06:25:48;;;;;;;17.63;13.00;;;8.40;99.90;;;11.61;61.83;98067.34;5061463;28;20040;-60
2023/04/17 06:28:16;;;;;;;22.37;12.83;;;8.40;99.90;;;11.51;61.89;98071.09;5061148;28;20049;-60
2023/04/17 06:30:46;;;;;;;18.03;12.67;;;8.30;99.90;;;11.51;61.89;98076.41;5059371;28;20069;-60
2023/04/17 06:33:14;;;;;;;18.87;12.53;;;8.30;99.90;;;11.46;62.36;98066.25;5060164;28;20410;-61
2023/04/17 06:35:42;;;;;;;16.70;12.60;;;8.30;99.90;;;11.56;62.25;98069.63;5041448;28;20060;-60
2023/04/17 06:38:30;;;;;;;14.40;11.00;;;8.40;99.90;;;11.66;62.00;98077.53;5058480;28;20055;-60
2023/04/17 06:40:58;;;;;;;17.93;11.90;;;8.50;99.90;;;11.61;62.03;98083.34;5061206;28;20045;-60
2023/04/17 06:43:25;;;;;;;17.63;11.20;;;8.40;99.90;;;11.54;62.32;98076.94;5061305;28;20052;-61
2023/04/17 06:45:53;;;;;;;19.83;12.30;;;8.40;99.90;;;11.60;62.25;98080.81;5058162;28;20048;-61
2023/04/17 06:48:21;;;;;;;17.70;11.33;;;8.40;99.90;;;11.61;62.26;98079.81;5059571;28;20049;-60
2023/04/17 06:50:49;;;;;;;16.83;11.00;;;8.40;99.90;;;11.65;62.17;98073.19;5043138;28;20065;-63
2023/04/17 06:53:16;;;;;;;18.93;11.33;;;8.50;99.90;;;11.70;62.14;98078.88;5044696;28;20371;-61
2023/04/17 06:55:44;;;;;;;21.63;11.97;;;8.50;99.90;;;11.73;62.24;98080.38;5061179;28;20045;-62
2023/04/17 06:58:12;;;;;;;17.97;11.87;;;8.60;99.90;;;11.76;62.25;98075.56;5059176;28;20406;-62
2023/04/17 07:00:39;;;;;;;17.57;11.20;;;8.60;99.90;;;11.79;61.95;98083.28;5058107;28;20518;-62
2023/04/17 07:03:07;;;;;;;17.00;10.47;;;8.70;99.90;;;11.83;62.09;98079.28;5062600;28;20062;-62
2023/04/17 07:05:35;;;;;;;17.13;11.17;;;8.70;99.90;;;11.89;61.94;98085.00;5062257;28;20517;-62
2023/04/17 07:08:02;;;;;;;16.03;10.63;;;8.80;99.90;;;11.83;62.23;98078.47;5059136;28;20036;-63
2023/04/17 07:10:30;;;;;;;17.87;11.30;;;8.70;99.90;;;11.83;62.35;98084.63;5059225;28;20457;-62
2023/04/17 07:12:58;;;;;;;16.57;11.70;;;8.70;99.90;;;11.93;61.96;98087.19;5062035;28;20048;-62
2023/04/17 07:15:29;;;;;;;18.43;11.33;;;8.80;99.90;;;11.98;61.67;98084.91;5062139;28;20632;-62
2023/04/17 07:17:57;;;;;;;19.47;12.40;;;8.90;99.90;;;12.02;62.01;98093.44;5059325;28;20045;-62
2023/04/17 07:20:24;;;;;;;18.90;11.50;;;8.90;99.90;;;12.03;61.66;98092.41;5059148;28;20037;-62
2023/04/17 07:22:52;;;;;;;19.90;11.87;;;8.90;99.90;;;12.04;61.77;98090.59;5061042;28;20056;-62
2023/04/17 07:25:20;;;;;;;16.13;12.23;;;8.90;99.90;;;11.90;61.70;98090.19;5062034;28;20041;-62
2023/04/17 07:27:47;;;;;;;18.13;12.67;;;8.80;99.90;;;11.88;61.96;98092.13;5060913;28;20045;-62
2023/04/17 07:30:15;;;;;;;17.37;11.33;;;8.70;99.90;;;11.79;62.34;98095.78;5058605;28;20041;-62
2023/04/17 07:32:42;;;;;;;21.43;11.83;;;8.60;99.90;;;11.80;62.05;98102.78;5059460;28;20398;-62
2023/04/17 07:35:10;;;;;;;18.60;12.83;;;8.70;99.90;;;11.83;62.33;98099.78;5060851;28;20128;-61
2023/04/17 07:37:37;;;;;;;20.63;12.23;;;8.70;99.90;;;11.88;61.84;98101.97;5062178;28;20074;-62
2023/04/17 07:40:07;;;;;;;17.07;11.27;;;8.80;99.90;;;11.89;62.12;98095.66;5059010;28;20041;-61
2023/04/17 07:42:35;;;;;;;19.00;12.40;;;8.80;99.90;;;11.83;61.96;98100.63;5056726;28;20430;-61
2023/04/17 07:45:05;;;;;;;18.13;11.57;;;8.70;99.90;;;11.86;62.08;98098.63;5050555;28;20295;-62
2023/04/17 07:47:32;;;;;;;19.97;11.57;;;8.70;99.90;;;11.90;62.24;98103.50;5059069;28;20041;-61
2023/04/17 07:50:00;;;;;;;17.83;11.70;;;8.70;99.90;;;11.98;62.25;98102.72;5062187;28;20056;-62
2023/04/17 07:52:28;;;;;;;18.40;11.60;;;8.90;99.90;;;12.04;62.19;98110.13;5062191;28;20041;-61
2023/04/17 07:54:55;;;;;;;17.03;10.13;;;8.90;99.90;;;12.00;62.00;98112.25;5059257;28;20056;-61
2023/04/17 07:57:25;;;;;;;18.30;11.37;;;8.90;99.90;;;12.03;62.16;98108.44;5058701;28;20041;-62
2023/04/17 07:59:52;;;;;;;17.77;10.83;;;9.00;99.90;;;12.05;61.95;98106.44;5060192;28;20053;-62
2023/04/17 08:02:20;;;;;;;20.40;12.37;;;8.90;99.90;;;12.10;62.11;98112.16;5060028;28;20207;-61
2023/04/17 08:04:51;;;;;;;18.27;11.43;;;9.00;99.90;;;12.13;61.84;98109.13;5060025;28;20040;-61
2023/04/17 08:07:19;;;;;;;19.50;11.43;;;9.00;99.90;;;12.13;61.87;98106.47;5052098;28;20041;-62
2023/04/17 08:09:46;;;;;;;16.77;11.30;;;9.00;99.90;;;12.13;62.03;98109.13;5051279;28;20060;-61
2023/04/17 08:12:14;;;;;;;17.90;11.90;;;9.00;99.90;;;12.18;62.11;98111.34;5065021;28;20048;-61
2023/04/17 08:14:42;;;;;;;18.90;11.90;;;9.10;99.90;;;12.23;61.86;98114.34;5063919;28;20444;-61
2023/04/17 08:17:10;;;;;;;16.73;11.00;;;9.20;99.90;;;12.24;61.85;98116.03;5061129;28;20033;-62
2023/04/17 08:19:37;;;;;;;17.83;11.17;;;9.30;99.90;;;12.24;61.85;98116.03;5038864;28;20048;-62
2023/04/17 08:22:06;;;;;;;18.73;11.43;;;9.20;99.90;;;12.19;62.07;98124.53;5043772;28;20041;-61
2023/04/17 08:24:33;;;;;;;18.43;11.93;;;9.10;99.90;;;12.30;61.91;98125.25;5060604;28;20045;-61
2023/04/17 08:27:01;;;;;;;17.60;11.20;;;9.20;99.90;;;12.31;62.05;98125.09;5064890;28;20049;-61
2023/04/17 08:29:28;;;;;;;17.33;10.33;;;9.30;99.90;;;12.40;61.90;98125.94;5065094;28;20040;-62
2023/04/17 08:31:56;;;;;;;16.67;10.80;;;9.40;99.90;;;12.49;61.67;98125.00;5062966;28;20040;-62
2023/04/17 08:34:42;;;;;;;15.33;10.30;;;9.60;99.90;;;12.62;61.47;98124.53;5061193;28;20052;-61
2023/04/17 08:37:10;;;;;;;15.27;10.33;;;9.70;99.90;;;12.71;61.67;98128.06;5064207;28;20413;-61
2023/04/17 08:39:38;;;;;;;13.30;9.43;;;9.80;99.90;;;12.76;61.37;98121.22;5064140;28;20036;-61
2023/04/17 08:42:09;;;;;;;15.37;9.70;;;9.90;99.90;;;12.90;61.53;98126.94;5064071;28;20041;-61
2023/04/17 08:44:44;;;;;;;12.90;8.73;;;10.00;99.90;;;12.91;61.07;98128.59;5064326;28;20053;-61
2023/04/17 08:47:12;;;;;;;13.90;9.17;;;10.00;99.90;;;12.79;61.21;98131.59;5060504;28;20080;-61
2023/04/17 08:49:42;;;;;;;13.43;9.47;;;9.90;99.90;;;12.87;61.24;98127.25;5060174;28;20395;-61
2023/04/17 08:52:10;;;;;;;17.53;9.87;;;9.90;99.90;;;12.89;61.10;98133.25;5054135;28;20422;-62
2023/04/17 08:54:38;;;;;;;10.70;8.43;;;10.00;99.90;;;12.85;61.25;98135.41;5061239;28;20056;-61
2023/04/17 08:57:06;;;;;;;15.13;9.30;;;10.00;99.90;;;12.87;61.09;98130.78;5064973;28;20497;-61
2023/04/17 08:59:33;;;;;;;16.30;10.30;;;9.90;99.90;;;12.92;61.29;98132.94;5063915;28;20040;-61
2023/04/17 09:02:06;;;;;;;14.60;9.37;;;9.90;99.90;;;12.95;61.30;98135.28;5062162;28;20045;-61
2023/04/17 09:04:46;;;;;;;16.13;9.65;;;10.00;99.90;;;12.92;61.15;98135.63;5040034;28;20061;-61
2023/04/17 09:07:14;;;;;;;13.07;9.63;;;10.10;99.90;;;12.90;61.30;98134.94;5054584;28;20049;-61
2023/04/17 09:09:55;;;;;;;15.90;9.70;;;10.00;99.90;;;12.94;61.63;98133.63;5061311;28;20064;-62
2023/04/17 09:12:25;;;;;;;14.37;10.27;;;10.10;99.90;;;12.84;60.86;98139.09;5064672;28;20052;-61
2023/04/17 09:14:53;;;;;;;12.83;9.07;;;10.00;99.90;;;12.82;60.95;98138.44;5062717;28;20040;-62
2023/04/17 09:17:20;;;;;;;14.70;9.97;;;9.90;99.90;;;12.84;61.14;98136.44;5060958;28;20037;-62
2023/04/17 09:20:07;;;;;;;15.53;9.70;;;9.90;99.90;;;12.90;61.05;98140.28;5061909;28;20048;-61
2023/04/17 09:22:39;;;;;;;13.47;9.27;;;9.90;99.90;;;12.92;61.03;98143.63;5062621;28;20044;-61
2023/04/17 09:25:20;;;;;;;14.33;9.50;;;10.00;99.90;;;12.92;60.96;98144.47;5061001;28;20506;-62
2023/04/17 09:27:47;;;;;;;12.63;8.93;;;10.00;99.90;;;12.93;60.72;98142.63;5061619;28;20045;-61
2023/04/17 09:30:15;;;;;;;12.27;9.20;;;10.00;99.90;;;13.02;61.13;98135.47;5064026;28;20045;-62
2023/04/17 09:32:42;;;;;;;12.50;8.43;;;10.00;99.90;;;13.07;60.75;98141.16;5062606;28;20055;-61
2023/04/17 09:35:26;;;;;;;12.30;8.63;;;10.10;99.90;;;13.04;60.58;98141.47;5052559;28;20033;-61
2023/04/17 09:37:57;;;;;;;13.47;9.57;;;10.10;99.90;;;13.05;60.44;98140.50;5058244;28;20299;-61
2023/04/17 09:40:35;;;;;;;14.03;8.57;;;10.10;99.90;;;13.07;60.38;98135.81;5064246;28;20037;-61
2023/04/17 09:43:05;;;;;;;14.90;9.40;;;10.10;99.90;;;13.14;60.38;98145.69;5044704;28;20083;-61
2023/04/17 09:45:40;;;;;;;13.15;9.27;;;10.20;99.90;;;13.24;60.48;98145.53;5060262;28;20045;-61
2023/04/17 09:48:10;;;;;;;14.03;8.73;;;10.40;99.90;;;13.31;60.21;98143.88;5063978;28;20103;-62
2023/04/17 09:50:39;;;;;;;11.23;8.70;;;10.40;99.90;;;13.38;60.18;98142.22;5063923;28;20061;-61
2023/04/17 09:53:07;;;;;;;10.80;7.67;;;10.50;99.90;;;13.49;60.12;98148.22;5060899;28;20434;-62
2023/04/17 09:55:36;;;;;;;10.03;7.57;;;10.70;99.90;;;13.58;59.80;98145.38;5058817;28;20040;-61
2023/04/17 09:58:06;;;;;;;9.47;6.93;;;10.80;99.90;;;13.64;60.06;98146.56;5061818;28;20048;-61
2023/04/17 10:00:35;;;;;;;10.53;7.93;;;10.80;99.90;;;13.77;59.63;98141.53;5062680;28;20394;-61
2023/04/17 10:03:05;;;;;;;11.90;7.13;;;11.00;99.90;;;13.88;59.84;98145.69;5061067;28;20044;-61
2023/04/17 10:05:34;;;;;;;10.65;7.00;;;11.10;99.90;;;14.01;59.80;98136.28;5060001;28;20529;-62
2023/04/17 10:08:02;;;;;;;9.45;7.03;;;11.20;99.90;;;14.14;59.21;98136.59;5059425;28;20435;-61
2023/04/17 10:10:32;;;;;;;7.35;5.78;;;11.30;99.90;;;14.21;59.43;98132.22;5045183;28;20063;-62
2023/04/17 10:13:04;;;;;;;11.23;6.78;;;11.40;99.90;;;14.30;59.27;98138.38;5061369;28;20052;-62
2023/04/17 10:15:32;;;;;;;7.63;5.97;;;11.50;99.90;;;14.35;58.84;98131.50;5038744;28;20043;-62
2023/04/17 10:18:24;;;;;;;13.73;10.02;;;11.50;99.90;;;14.37;59.04;98134.00;5044516;28;20045;-62
2023/04/17 10:20:54;;;;;;;11.80;7.35;;;11.60;99.90;;;14.39;58.73;98129.31;5061319;28;20052;-62
2023/04/17 10:23:40;;;;;;;9.48;5.95;;;11.60;99.90;;;14.38;58.39;98127.63;5059853;28;20041;-62